createdAt,value
2019-03-15T00:00:56.939Z,95.58
2019-03-15T00:03:27.748Z,95.69
2019-03-15T00:05:57.502Z,95.62
2019-03-15T00:08:27.515Z,95.26
2019-03-15T00:10:57.380Z,95.57
2019-03-15T00:13:27.253Z,95.08
2019-03-15T00:15:57.447Z,93.78
2019-03-15T00:18:27.405Z,92.88
2019-03-15T00:20:57.201Z,93.86
2019-03-15T00:23:27.180Z,93.89
2019-03-15T00:25:56.937Z,93.91
2019-03-15T00:28:26.854Z,93.64
2019-03-15T00:30:56.831Z,93.74
2019-03-15T00:33:26.586Z,93.64
2019-03-15T00:35:56.412Z,92.92
2019-03-15T00:38:26.246Z,96.86
2019-03-15T00:40:56.196Z,99.08
2019-03-15T00:43:26.060Z,99.14
2019-03-15T00:45:55.781Z,98.64
2019-03-15T00:48:25.724Z,97.37
2019-03-15T00:50:55.664Z,95.63
2019-03-15T00:53:25.504Z,94.88
2019-03-15T00:55:55.133Z,95.93
2019-03-15T00:58:24.880Z,95.64
2019-03-15T01:00:54.635Z,95.09
2019-03-15T01:03:24.266Z,95.20
2019-03-15T01:05:55.055Z,95.42
2019-03-15T01:08:24.802Z,95.74
2019-03-15T01:10:54.612Z,95.58
2019-03-15T01:13:24.478Z,98.18
2019-03-15T01:15:54.044Z,99.16
2019-03-15T01:18:23.757Z,98.22
2019-03-15T01:20:53.624Z,96.75
2019-03-15T01:23:23.496Z,95.68
2019-03-15T01:25:53.406Z,96.29
2019-03-15T01:28:23.436Z,95.80
2019-03-15T01:30:53.238Z,96.62
2019-03-15T01:33:23.182Z,96.49
2019-03-15T01:35:53.131Z,96.24
2019-03-15T01:38:22.985Z,96.07
2019-03-15T01:40:52.720Z,96.12
2019-03-15T01:43:22.881Z,95.78
2019-03-15T01:45:53.630Z,95.82
2019-03-15T01:48:23.597Z,95.90
2019-03-15T01:50:53.433Z,95.64
2019-03-15T01:53:23.614Z,95.16
2019-03-15T01:55:53.563Z,94.61
2019-03-15T01:58:23.422Z,94.25
2019-03-15T02:00:53.260Z,94.19
2019-03-15T02:03:23.083Z,94.05
2019-03-15T02:05:52.826Z,93.44
2019-03-15T02:08:23.526Z,93.62
2019-03-15T02:10:53.647Z,93.57
2019-03-15T02:13:23.412Z,92.72
2019-03-15T02:15:53.171Z,92.91
2019-03-15T02:18:23.185Z,92.53
2019-03-15T02:20:53.324Z,91.76
2019-03-15T02:23:23.556Z,91.64
2019-03-15T02:25:53.532Z,92.38
2019-03-15T02:28:23.413Z,92.36
2019-03-15T02:30:53.317Z,91.95
2019-03-15T02:33:23.236Z,91.89
2019-03-15T02:35:53.067Z,92.41
2019-03-15T02:38:22.938Z,92.67
2019-03-15T02:40:52.746Z,90.60
2019-03-15T02:43:22.725Z,91.11
2019-03-15T02:45:52.551Z,91.67
2019-03-15T02:48:22.447Z,91.74
2019-03-15T02:50:52.219Z,91.83
2019-03-15T02:53:22.130Z,92.37
2019-03-15T02:55:52.085Z,93.80
2019-03-15T02:58:21.975Z,94.60
2019-03-15T03:00:51.776Z,93.96
2019-03-15T03:03:21.660Z,92.86
2019-03-15T03:05:51.426Z,96.47
2019-03-15T03:08:21.347Z,98.08
2019-03-15T03:10:53.335Z,97.70
2019-03-15T03:13:23.098Z,97.62
2019-03-15T03:15:53.182Z,98.16
2019-03-15T03:18:22.840Z,99.55
2019-03-15T03:20:52.539Z,99.84
2019-03-15T03:23:22.307Z,99.93
2019-03-15T03:25:52.081Z,99.91
2019-03-15T03:28:21.897Z,100.00
2019-03-15T03:30:51.672Z,100.00
2019-03-15T03:33:21.318Z,100.00
2019-03-15T03:35:51.137Z,100.00
2019-03-15T03:38:21.260Z,100.00
2019-03-15T03:40:51.065Z,100.00
2019-03-15T03:43:20.899Z,100.00
2019-03-15T03:45:50.859Z,100.00
2019-03-15T03:48:20.603Z,100.00
2019-03-15T03:50:50.545Z,100.00
2019-03-15T03:53:20.299Z,100.00
2019-03-15T03:55:50.164Z,100.00
2019-03-15T03:58:20.245Z,100.00
2019-03-15T04:00:50.015Z,100.00
2019-03-15T04:03:20.233Z,100.00
2019-03-15T04:05:50.759Z,100.00
2019-03-15T04:08:20.651Z,100.00
2019-03-15T04:10:51.784Z,100.00
2019-03-15T04:13:21.846Z,100.00
2019-03-15T04:15:52.871Z,100.00
2019-03-15T04:18:22.906Z,100.00
2019-03-15T04:20:52.799Z,100.00
2019-03-15T04:23:22.681Z,100.00
2019-03-15T04:25:52.655Z,100.00
2019-03-15T04:28:22.568Z,100.00
2019-03-15T04:30:52.416Z,98.44
2019-03-15T04:33:22.273Z,97.29
2019-03-15T04:35:52.284Z,97.08
2019-03-15T04:38:22.024Z,97.54
2019-03-15T04:40:51.919Z,97.78
2019-03-15T04:43:21.805Z,98.08
2019-03-15T04:45:51.730Z,98.77
2019-03-15T04:48:21.518Z,100.00
2019-03-15T04:50:51.293Z,100.00
2019-03-15T04:53:21.226Z,100.00
2019-03-15T04:55:50.987Z,100.00
2019-03-15T04:58:20.749Z,100.00
2019-03-15T05:00:50.566Z,100.00
2019-03-15T05:03:21.063Z,100.00
2019-03-15T05:06:02.413Z,100.00
2019-03-15T05:08:22.874Z,100.00
2019-03-15T05:10:52.904Z,100.00
2019-03-15T05:13:22.659Z,100.00
2019-03-15T05:15:52.299Z,100.00
2019-03-15T05:18:22.139Z,100.00
2019-03-15T05:20:52.024Z,100.00
2019-03-15T05:23:21.874Z,100.00
2019-03-15T05:25:51.588Z,100.00
2019-03-15T05:28:21.311Z,100.00
2019-03-15T05:30:51.108Z,100.00
2019-03-15T05:33:21.016Z,100.00
2019-03-15T05:35:50.978Z,100.00
2019-03-15T05:38:20.742Z,100.00
2019-03-15T05:40:50.565Z,100.00
2019-03-15T05:43:20.439Z,100.00
2019-03-15T05:45:50.180Z,100.00
2019-03-15T05:48:20.092Z,100.00
2019-03-15T05:50:51.289Z,100.00
2019-03-15T05:53:21.048Z,100.00
2019-03-15T05:55:51.012Z,100.00
2019-03-15T05:58:22.098Z,100.00
2019-03-15T06:00:52.262Z,100.00
2019-03-15T06:03:22.072Z,98.89
2019-03-15T06:05:52.025Z,98.69
2019-03-15T06:08:22.014Z,97.55
2019-03-15T06:10:54.669Z,96.13
2019-03-15T06:13:23.652Z,93.61
2019-03-15T06:15:53.379Z,94.93
2019-03-15T06:18:23.213Z,93.97
2019-03-15T06:20:53.059Z,94.37
2019-03-15T06:23:22.862Z,93.82
2019-03-15T06:25:52.935Z,94.36
2019-03-15T06:28:22.894Z,93.74
2019-03-15T06:30:52.892Z,95.52
2019-03-15T06:33:22.690Z,96.13
2019-03-15T06:35:52.667Z,96.59
2019-03-15T06:38:22.427Z,96.67
2019-03-15T06:40:52.264Z,97.10
2019-03-15T06:43:22.165Z,95.46
2019-03-15T06:45:52.111Z,95.40
2019-03-15T06:48:21.999Z,93.97
2019-03-15T06:50:51.936Z,93.30
2019-03-15T06:53:21.779Z,92.78
2019-03-15T06:55:51.558Z,90.83
2019-03-15T06:58:21.399Z,89.06
2019-03-15T07:00:54.362Z,87.23
2019-03-15T07:03:22.517Z,85.91
2019-03-15T07:05:52.465Z,85.10
2019-03-15T07:08:22.262Z,83.82
2019-03-15T07:10:51.967Z,83.48
2019-03-15T07:13:21.750Z,83.45
2019-03-15T07:15:51.621Z,83.52
2019-03-15T07:18:21.636Z,81.15
2019-03-15T07:20:51.429Z,85.16
2019-03-15T07:23:21.149Z,85.00
2019-03-15T07:25:50.941Z,84.64
2019-03-15T07:28:20.781Z,84.31
2019-03-15T07:30:50.704Z,83.90
2019-03-15T07:33:23.135Z,84.78
2019-03-15T07:35:53.399Z,85.24
2019-03-15T07:38:23.230Z,86.45
2019-03-15T07:40:53.150Z,87.50
2019-03-15T07:43:23.043Z,87.33
2019-03-15T07:45:52.854Z,88.66
2019-03-15T07:48:23.232Z,88.77
2019-03-15T07:50:54.257Z,86.92
2019-03-15T07:53:24.017Z,83.64
2019-03-15T07:55:53.841Z,82.53
2019-03-15T07:58:23.805Z,81.41
2019-03-15T08:00:53.676Z,80.75
2019-03-15T08:03:23.717Z,81.49
2019-03-15T08:05:53.553Z,80.98
2019-03-15T08:08:23.564Z,82.03
2019-03-15T08:10:54.978Z,82.41
2019-03-15T08:13:25.057Z,82.67
2019-03-15T08:15:54.933Z,82.65
2019-03-15T08:18:24.727Z,80.73
2019-03-15T08:20:54.794Z,81.39
2019-03-15T08:23:24.852Z,81.92
2019-03-15T08:25:54.698Z,80.91
2019-03-15T08:28:24.533Z,79.95
2019-03-15T08:30:54.338Z,78.71
2019-03-15T08:33:24.213Z,77.77
2019-03-15T08:35:54.142Z,78.06
2019-03-15T08:38:23.861Z,78.98
2019-03-15T08:40:53.815Z,79.21
2019-03-15T08:43:23.648Z,79.26
2019-03-15T08:45:54.423Z,78.52
2019-03-15T08:48:24.391Z,77.86
2019-03-15T08:50:54.324Z,78.93
2019-03-15T08:53:24.123Z,78.77
2019-03-15T08:55:54.305Z,81.00
2019-03-15T08:58:24.027Z,83.25
2019-03-15T09:00:53.823Z,85.55
2019-03-15T09:03:28.246Z,89.03
2019-03-15T09:05:55.304Z,88.90
2019-03-15T09:08:25.051Z,90.18
2019-03-15T09:10:56.056Z,94.21
2019-03-15T09:13:25.873Z,95.89
2019-03-15T09:15:55.581Z,95.43
2019-03-15T09:18:25.570Z,95.69
2019-03-15T09:20:55.307Z,96.77
2019-03-15T09:23:25.161Z,95.81
2019-03-15T09:25:54.848Z,96.19
2019-03-15T09:28:24.550Z,96.26
2019-03-15T09:30:54.413Z,95.92
2019-03-15T09:33:24.168Z,96.68
2019-03-15T09:35:54.158Z,94.99
2019-03-15T09:38:23.808Z,91.78
2019-03-15T09:40:53.764Z,89.63
2019-03-15T09:43:24.689Z,90.60
2019-03-15T09:45:55.596Z,88.22
2019-03-15T09:48:25.617Z,89.48
2019-03-15T09:50:56.684Z,84.65
2019-03-15T09:53:26.474Z,82.28
2019-03-15T09:55:56.168Z,84.50
2019-03-15T09:58:25.953Z,83.08
2019-03-15T10:00:55.767Z,79.68
2019-03-15T10:03:25.449Z,77.56
2019-03-15T10:05:55.144Z,76.36
2019-03-15T10:08:24.928Z,76.63
2019-03-15T10:10:54.772Z,74.76
2019-03-15T10:13:24.721Z,73.07
2019-03-15T10:15:55.842Z,73.95
2019-03-15T10:18:25.797Z,73.17
2019-03-15T10:20:55.551Z,73.09
2019-03-15T10:23:25.319Z,68.41
2019-03-15T10:25:55.093Z,68.80
2019-03-15T10:28:24.806Z,68.12
2019-03-15T10:30:54.651Z,69.15
2019-03-15T10:33:24.527Z,68.43
2019-03-15T10:35:54.466Z,68.51
2019-03-15T10:38:24.414Z,67.14
2019-03-15T10:40:54.180Z,65.93
2019-03-15T10:43:23.971Z,67.75
2019-03-15T10:45:53.632Z,70.70
2019-03-15T10:48:25.541Z,72.20
2019-03-15T10:50:54.984Z,70.03
2019-03-15T10:53:24.788Z,69.33
2019-03-15T10:56:00.038Z,68.03
2019-03-15T10:58:26.258Z,66.60
2019-03-15T11:00:56.015Z,64.82
2019-03-15T11:03:25.802Z,63.75
2019-03-15T11:05:55.719Z,63.35
2019-03-15T11:08:25.570Z,62.40
2019-03-15T11:10:55.355Z,61.44
2019-03-15T11:13:25.268Z,60.44
2019-03-15T11:15:55.249Z,59.26
2019-03-15T11:18:25.081Z,57.71
2019-03-15T11:20:54.797Z,59.38
2019-03-15T11:23:24.662Z,60.89
2019-03-15T11:25:54.542Z,60.00
2019-03-15T11:28:24.358Z,59.35
2019-03-15T11:30:54.293Z,58.60
2019-03-15T11:33:24.175Z,58.45
2019-03-15T11:35:53.987Z,57.14
2019-03-15T11:38:23.864Z,56.34
2019-03-15T11:40:53.708Z,55.46
2019-03-15T11:43:23.558Z,54.69
2019-03-15T11:45:53.407Z,54.13
2019-03-15T11:48:23.286Z,52.81
2019-03-15T11:50:53.212Z,52.55
2019-03-15T11:53:22.949Z,51.61
2019-03-15T11:55:52.752Z,51.68
2019-03-15T11:58:22.463Z,51.00
2019-03-15T12:00:52.406Z,52.41
2019-03-15T12:03:22.251Z,51.78
2019-03-15T12:05:52.335Z,52.78
2019-03-15T12:08:22.086Z,52.47
2019-03-15T12:10:52.016Z,50.97
2019-03-15T12:13:21.847Z,50.54
2019-03-15T12:15:51.762Z,50.27
2019-03-15T12:18:21.829Z,50.60
2019-03-15T12:20:51.596Z,49.49
2019-03-15T12:23:21.483Z,48.86
2019-03-15T12:25:51.408Z,48.81
2019-03-15T12:28:22.615Z,47.62
2019-03-15T12:30:52.355Z,47.53
2019-03-15T12:33:22.189Z,47.96
2019-03-15T12:35:52.048Z,47.48
2019-03-15T12:38:21.922Z,47.40
2019-03-15T12:40:52.353Z,48.19
2019-03-15T12:43:23.174Z,49.02
2019-03-15T12:45:52.905Z,49.78
2019-03-15T12:48:23.082Z,49.34
2019-03-15T12:50:52.924Z,49.35
2019-03-15T12:53:22.634Z,49.90
2019-03-15T12:55:52.593Z,49.94
2019-03-15T12:58:22.409Z,50.57
2019-03-15T13:00:52.186Z,51.55
2019-03-15T13:03:21.897Z,51.88
2019-03-15T13:05:51.766Z,52.69
2019-03-15T13:08:21.608Z,52.96
2019-03-15T13:10:51.238Z,53.71
2019-03-15T13:13:21.198Z,53.23
2019-03-15T13:15:51.056Z,53.65
2019-03-15T13:18:20.882Z,53.60
2019-03-15T13:20:50.852Z,53.93
2019-03-15T13:23:20.712Z,54.17
2019-03-15T13:25:50.625Z,55.85
2019-03-15T13:28:20.396Z,55.98
2019-03-15T13:30:50.160Z,55.78
2019-03-15T13:33:21.095Z,57.12
2019-03-15T13:35:52.361Z,57.75
2019-03-15T13:38:22.162Z,58.32
2019-03-15T13:40:52.094Z,58.66
2019-03-15T13:43:22.049Z,59.40
2019-03-15T13:45:51.835Z,60.43
2019-03-15T13:48:21.791Z,61.32
2019-03-15T13:50:51.535Z,62.28
2019-03-15T13:53:21.253Z,63.12
2019-03-15T13:55:51.244Z,62.84
2019-03-15T13:58:20.972Z,62.70
2019-03-15T14:00:50.788Z,63.49
2019-03-15T14:03:20.620Z,64.00
2019-03-15T14:05:50.652Z,66.26
2019-03-15T14:08:20.405Z,67.03
2019-03-15T14:10:51.437Z,76.02
2019-03-15T14:13:21.301Z,84.52
2019-03-15T14:15:51.113Z,84.44
2019-03-15T14:18:21.688Z,92.94
2019-03-15T14:20:51.597Z,96.90
2019-03-15T14:23:21.407Z,96.80
2019-03-15T14:25:51.150Z,96.79
2019-03-15T14:28:21.112Z,96.63
2019-03-15T14:30:50.950Z,96.93
2019-03-15T14:33:20.738Z,97.49
2019-03-15T14:35:50.588Z,97.22
2019-03-15T14:38:20.511Z,97.77
2019-03-15T14:40:50.434Z,96.92
2019-03-15T14:43:20.575Z,95.81
2019-03-15T14:45:50.238Z,95.48
2019-03-15T14:48:20.093Z,94.57
2019-03-15T14:50:49.922Z,94.57
2019-03-15T14:53:19.699Z,94.59
2019-03-15T14:55:49.382Z,95.06
2019-03-15T14:58:19.282Z,93.06
2019-03-15T15:00:49.140Z,91.30
2019-03-15T15:03:19.116Z,91.25
2019-03-15T15:05:48.965Z,90.83
2019-03-15T15:08:18.922Z,90.19
2019-03-15T15:10:48.780Z,87.66
2019-03-15T15:13:18.794Z,86.65
2019-03-15T15:15:48.667Z,85.60
2019-03-15T15:18:18.548Z,85.23
2019-03-15T15:20:48.349Z,86.67
2019-03-15T15:23:18.444Z,87.10
2019-03-15T15:25:48.191Z,88.69
2019-03-15T15:28:18.112Z,88.16
2019-03-15T15:30:47.906Z,88.81
2019-03-15T15:33:17.859Z,87.97
2019-03-15T15:35:47.852Z,88.47
2019-03-15T15:38:17.696Z,89.57
2019-03-15T15:40:47.544Z,90.75
2019-03-15T15:43:17.622Z,90.89
2019-03-15T15:45:47.541Z,90.18
2019-03-15T15:48:17.354Z,91.45
2019-03-15T15:50:47.298Z,92.24
2019-03-15T15:53:17.045Z,92.66
2019-03-15T15:55:46.799Z,92.96
2019-03-15T15:58:18.157Z,92.41
2019-03-15T16:00:48.346Z,92.77
2019-03-15T16:03:19.582Z,92.37
2019-03-15T16:05:49.466Z,90.14
2019-03-15T16:08:19.331Z,88.15
2019-03-15T16:10:49.223Z,87.28
2019-03-15T16:13:19.190Z,86.90
2019-03-15T16:15:49.004Z,87.05
2019-03-15T16:18:18.903Z,88.03
2019-03-15T16:20:48.715Z,88.39
2019-03-15T16:23:18.635Z,88.67
2019-03-15T16:25:48.551Z,89.22
2019-03-15T16:28:30.817Z,89.60
2019-03-15T16:30:50.131Z,91.84
2019-03-15T16:33:19.855Z,92.99
2019-03-15T16:35:49.681Z,93.88
2019-03-15T16:38:20.808Z,94.67
2019-03-15T16:40:50.676Z,95.26
2019-03-15T16:43:21.957Z,96.51
2019-03-15T16:45:51.678Z,97.32
2019-03-15T16:48:21.581Z,97.65
2019-03-15T16:50:51.994Z,97.87
2019-03-15T16:53:21.844Z,98.46
2019-03-15T16:55:51.681Z,98.70
2019-03-15T16:58:21.476Z,99.08
2019-03-15T17:00:51.171Z,99.12
2019-03-15T17:03:22.117Z,98.93
2019-03-15T17:05:51.939Z,99.00
2019-03-15T17:08:21.844Z,99.84
2019-03-15T17:10:51.881Z,100.00
2019-03-15T17:13:21.789Z,100.00
2019-03-15T17:15:51.591Z,100.00
2019-03-15T17:18:21.410Z,99.98
2019-03-15T17:20:51.143Z,99.58
2019-03-15T17:23:21.004Z,99.83
2019-03-15T17:25:50.994Z,99.84
2019-03-15T17:28:20.905Z,99.98
2019-03-15T17:30:50.849Z,100.00
2019-03-15T17:33:20.714Z,100.00
2019-03-15T17:35:50.565Z,100.00
2019-03-15T17:38:20.431Z,100.00
2019-03-15T17:40:50.452Z,100.00
2019-03-15T17:43:20.314Z,100.00
2019-03-15T17:45:50.148Z,100.00
2019-03-15T17:48:19.991Z,100.00
2019-03-15T17:50:49.930Z,100.00
2019-03-15T17:53:20.968Z,100.00
2019-03-15T17:55:50.987Z,100.00
2019-03-15T17:58:20.752Z,100.00
2019-03-15T18:00:50.748Z,100.00
2019-03-15T18:03:22.052Z,100.00
2019-03-15T18:05:53.174Z,100.00
2019-03-15T18:08:23.211Z,100.00
2019-03-15T18:10:53.062Z,100.00
2019-03-15T18:13:23.004Z,100.00
2019-03-15T18:15:53.011Z,100.00
2019-03-15T18:18:22.893Z,100.00
2019-03-15T18:20:54.021Z,100.00
2019-03-15T18:23:24.073Z,100.00
2019-03-15T18:25:54.106Z,100.00
2019-03-15T18:28:24.045Z,100.00
2019-03-15T18:30:54.048Z,100.00
2019-03-15T18:33:25.108Z,100.00
2019-03-15T18:35:54.970Z,100.00
2019-03-15T18:38:24.868Z,100.00
2019-03-15T18:40:54.625Z,100.00
2019-03-15T18:43:24.344Z,100.00
2019-03-15T18:45:54.174Z,100.00
2019-03-15T18:48:23.985Z,100.00
2019-03-15T18:50:53.900Z,100.00
2019-03-15T18:53:23.863Z,100.00
2019-03-15T18:55:53.769Z,100.00
2019-03-15T18:58:23.440Z,100.00
2019-03-15T19:00:53.251Z,100.00
2019-03-15T19:03:23.052Z,97.67
2019-03-15T19:05:52.756Z,93.45
2019-03-15T19:08:22.917Z,92.46
2019-03-15T19:10:52.791Z,92.09
2019-03-15T19:13:22.641Z,92.58
2019-03-15T19:15:52.619Z,93.35
2019-03-15T19:18:22.550Z,94.79
2019-03-15T19:20:52.512Z,95.29
2019-03-15T19:23:23.397Z,94.79
2019-03-15T19:25:53.204Z,95.13
2019-03-15T19:28:23.132Z,95.80
2019-03-15T19:30:53.235Z,95.88
2019-03-15T19:33:23.144Z,95.21
2019-03-15T19:35:52.966Z,95.04
2019-03-15T19:38:22.739Z,94.87
2019-03-15T19:40:52.615Z,95.10
2019-03-15T19:43:22.531Z,95.17
2019-03-15T19:45:52.305Z,94.56
2019-03-15T19:48:22.093Z,94.43
2019-03-15T19:50:51.934Z,96.58
2019-03-15T19:53:21.784Z,96.44
2019-03-15T19:55:51.615Z,97.13
2019-03-15T19:58:21.567Z,97.79
2019-03-15T20:00:51.361Z,97.75
2019-03-15T20:03:22.317Z,97.54
2019-03-15T20:05:52.190Z,95.32
2019-03-15T20:08:22.103Z,95.09
2019-03-15T20:10:53.092Z,95.21
2019-03-15T20:13:22.855Z,93.34
2019-03-15T20:15:52.686Z,91.68
2019-03-15T20:18:23.682Z,88.70
2019-03-15T20:20:53.473Z,86.87
2019-03-15T20:23:23.244Z,84.81
2019-03-15T20:25:53.093Z,84.13
2019-03-15T20:28:22.924Z,83.80
2019-03-15T20:30:52.685Z,84.00
2019-03-15T20:33:23.831Z,83.82
2019-03-15T20:35:54.056Z,81.98
2019-03-15T20:38:25.024Z,82.13
2019-03-15T20:40:54.784Z,82.10
2019-03-15T20:43:24.629Z,79.75
2019-03-15T20:45:54.592Z,79.50
2019-03-15T20:48:24.504Z,79.35
2019-03-15T20:50:54.261Z,79.12
2019-03-15T20:53:24.233Z,79.03
2019-03-15T20:55:54.404Z,79.21
2019-03-15T20:58:24.211Z,79.50
2019-03-15T21:00:54.326Z,79.65
2019-03-15T21:03:24.311Z,79.87
2019-03-15T21:05:54.162Z,80.35
2019-03-15T21:08:23.903Z,81.06
2019-03-15T21:10:53.714Z,82.42
2019-03-15T21:13:23.536Z,83.00
2019-03-15T21:15:53.529Z,84.64
2019-03-15T21:18:23.323Z,89.43
2019-03-15T21:20:53.104Z,97.19
2019-03-15T21:23:23.014Z,98.85
2019-03-15T21:25:52.808Z,99.20
2019-03-15T21:28:22.622Z,99.30
2019-03-15T21:30:52.698Z,99.58
2019-03-15T21:33:22.557Z,99.31
2019-03-15T21:35:52.378Z,99.30
2019-03-15T21:38:22.359Z,100.00
2019-03-15T21:40:52.201Z,100.00
2019-03-15T21:43:22.100Z,99.58
2019-03-15T21:45:52.093Z,99.64
2019-03-15T21:48:21.964Z,100.00
2019-03-15T21:50:51.969Z,100.00
2019-03-15T21:53:22.225Z,100.00
2019-03-15T21:55:52.044Z,100.00
2019-03-15T21:58:21.814Z,100.00
2019-03-15T22:01:01.718Z,100.00
2019-03-15T22:03:24.448Z,100.00
2019-03-15T22:05:54.216Z,100.00
2019-03-15T22:08:24.333Z,100.00
2019-03-15T22:10:54.338Z,100.00
2019-03-15T22:13:24.249Z,100.00
2019-03-15T22:16:44.022Z,100.00
2019-03-15T22:19:28.417Z,97.41
2019-03-15T22:22:38.153Z,92.77
2019-03-15T22:25:22.189Z,90.32
2019-03-15T22:28:36.626Z,86.59
2019-03-15T22:31:20.776Z,85.10
2019-03-15T22:34:08.246Z,82.12
2019-03-15T22:36:59.131Z,81.75
2019-03-15T22:40:03.214Z,81.77
2019-03-15T22:42:50.579Z,81.96
2019-03-15T22:45:53.210Z,82.27
2019-03-15T22:48:33.318Z,82.50
2019-03-15T22:51:17.471Z,82.47
2019-03-15T22:53:47.138Z,82.48
2019-03-15T22:56:17.032Z,82.63
2019-03-15T22:58:46.873Z,82.95
2019-03-15T23:01:29.273Z,83.36
2019-03-15T23:03:48.219Z,84.29
2019-03-15T23:06:18.253Z,84.95
2019-03-15T23:08:48.117Z,85.14
2019-03-15T23:11:18.513Z,84.99
2019-03-15T23:13:48.422Z,85.46
2019-03-15T23:16:18.188Z,86.48
2019-03-15T23:18:48.121Z,87.41
2019-03-15T23:21:18.051Z,89.61
2019-03-15T23:23:47.873Z,92.63
2019-03-15T23:26:17.697Z,94.04
2019-03-15T23:28:47.997Z,93.50
2019-03-15T23:31:17.716Z,91.19
2019-03-15T23:33:47.545Z,89.29
2019-03-15T23:36:17.618Z,88.03
2019-03-15T23:38:47.522Z,86.88
2019-03-15T23:41:17.396Z,86.09
2019-03-15T23:43:47.310Z,85.77
2019-03-15T23:46:17.266Z,85.16
2019-03-15T23:48:47.032Z,84.54
2019-03-15T23:51:16.739Z,84.54
2019-03-15T23:53:46.478Z,84.98
2019-03-15T23:56:16.287Z,85.57
2019-03-15T23:58:46.107Z,86.20
